NKS528 MMUN-KFLL
Flight info
| Callsign | NKS528 |
|---|---|
| Flight time | 1h 25m |
| Altitude | 39000 |
| Route | NUDAL1A NUDAL UV106 PODON UG765 MAXIM BHHIA3 |
| Aircraft | A20N/M-SDE2E3FGHIRWXY/LB1 |
Departure
| Time | 2026-05-07 16:20 |
|---|---|
| Airport | Cancún International Airport (MMUN) |
Arrival
| Time | 2026-05-07 17:46 |
|---|---|
| Airport | Fort Lauderdale Hollywood International Airport (KFLL) |
| Time | Latitude | Longitude | Altitude | Speed | Heading |
|---|---|---|---|---|---|
| 2026-05-07 16:09 | 21.03659 | -86.87069 | 27 ft | 0 kts | 33° |
| 2026-05-07 16:12 | 21.03649 | -86.87076 | 27 ft | 3 kts | 33° |
| 2026-05-07 16:13 | 21.03632 | -86.87088 | 27 ft | 3 kts | 33° |
| 2026-05-07 16:13 | 21.03616 | -86.87099 | 27 ft | 2 kts | 33° |
| 2026-05-07 16:13 | 21.03601 | -86.87109 | 27 ft | 3 kts | 16° |
| 2026-05-07 16:13 | 21.03582 | -86.87111 | 27 ft | 3 kts | 336° |
| 2026-05-07 16:14 | 21.03567 | -86.87099 | 27 ft | 3 kts | 308° |
| 2026-05-07 16:14 | 21.03559 | -86.87088 | 27 ft | 1 kts | 304° |
| 2026-05-07 16:14 | 21.03558 | -86.87086 | 27 ft | 0 kts | 304° |
| 2026-05-07 16:16 | 21.03558 | -86.87087 | 27 ft | 1 kts | 304° |
| 2026-05-07 16:16 | 21.03581 | -86.87123 | 27 ft | 12 kts | 304° |
| 2026-05-07 16:16 | 21.03637 | -86.87218 | 28 ft | 18 kts | 301° |
| 2026-05-07 16:16 | 21.03679 | -86.87304 | 28 ft | 10 kts | 261° |
| 2026-05-07 16:17 | 21.03648 | -86.87362 | 28 ft | 6 kts | 289° |
| 2026-05-07 16:17 | 21.03676 | -86.87418 | 28 ft | 12 kts | 301° |
| 2026-05-07 16:17 | 21.03733 | -86.87508 | 28 ft | 17 kts | 304° |
| 2026-05-07 16:17 | 21.03809 | -86.87635 | 28 ft | 23 kts | 303° |
| 2026-05-07 16:18 | 21.03907 | -86.87790 | 28 ft | 27 kts | 304° |
| 2026-05-07 16:18 | 21.04024 | -86.87971 | 28 ft | 31 kts | 303° |
| 2026-05-07 16:18 | 21.04093 | -86.88081 | 28 ft | 10 kts | 304° |
| 2026-05-07 16:18 | 21.04143 | -86.88160 | 28 ft | 16 kts | 304° |
| 2026-05-07 16:19 | 21.04207 | -86.88261 | 28 ft | 8 kts | 304° |
| 2026-05-07 16:19 | 21.04179 | -86.88310 | 29 ft | 11 kts | 210° |
| 2026-05-07 16:19 | 21.04108 | -86.88354 | 29 ft | 6 kts | 210° |
| 2026-05-07 16:19 | 21.04072 | -86.88355 | 28 ft | 8 kts | 152° |
| 2026-05-07 16:20 | 21.04024 | -86.88285 | 28 ft | 28 kts | 121° |
| 2026-05-07 16:20 | 21.03758 | -86.87859 | 29 ft | 108 kts | 124° |
| 2026-05-07 16:20 | 21.03217 | -86.87002 | 171 ft | 156 kts | 126° |
| 2026-05-07 16:20 | 21.02594 | -86.86037 | 822 ft | 164 kts | 128° |
| 2026-05-07 16:21 | 21.01941 | -86.85019 | 1673 ft | 168 kts | 123° |
| 2026-05-07 16:21 | 21.01278 | -86.83910 | 2328 ft | 186 kts | 122° |
| 2026-05-07 16:21 | 21.00594 | -86.82635 | 2841 ft | 209 kts | 120° |
| 2026-05-07 16:21 | 20.99881 | -86.81182 | 3427 ft | 231 kts | 118° |
| 2026-05-07 16:22 | 20.99115 | -86.79581 | 4012 ft | 252 kts | 118° |
| 2026-05-07 16:22 | 20.98302 | -86.77881 | 4655 ft | 261 kts | 118° |
| 2026-05-07 16:22 | 20.97472 | -86.76151 | 4895 ft | 262 kts | 118° |
| 2026-05-07 16:22 | 20.96645 | -86.74427 | 4982 ft | 259 kts | 118° |
| 2026-05-07 16:23 | 20.96109 | -86.72581 | 4999 ft | 265 kts | 98° |
| 2026-05-07 16:23 | 20.96079 | -86.71773 | 5116 ft | 268 kts | 90° |
| 2026-05-07 16:23 | 20.96393 | -86.69778 | 5746 ft | 275 kts | 81° |
| 2026-05-07 16:23 | 20.96780 | -86.67778 | 6702 ft | 274 kts | 81° |
| 2026-05-07 16:24 | 20.97153 | -86.65771 | 7552 ft | 278 kts | 81° |
| 2026-05-07 16:24 | 20.97529 | -86.63727 | 8377 ft | 281 kts | 81° |
| 2026-05-07 16:24 | 20.97909 | -86.61668 | 9215 ft | 284 kts | 80° |
| 2026-05-07 16:24 | 20.98329 | -86.59585 | 10016 ft | 289 kts | 75° |
| 2026-05-07 16:25 | 20.99001 | -86.57513 | 10480 ft | 305 kts | 70° |
| 2026-05-07 16:25 | 20.99775 | -86.55309 | 10703 ft | 327 kts | 70° |
| 2026-05-07 16:25 | 21.00595 | -86.52973 | 11115 ft | 339 kts | 70° |
| 2026-05-07 16:25 | 21.01425 | -86.50603 | 11835 ft | 342 kts | 70° |
| 2026-05-07 16:26 | 21.02259 | -86.48212 | 12554 ft | 344 kts | 70° |
| 2026-05-07 16:26 | 21.03099 | -86.45798 | 13255 ft | 347 kts | 70° |
| 2026-05-07 16:26 | 21.03944 | -86.43362 | 13918 ft | 351 kts | 70° |
| 2026-05-07 16:26 | 21.04509 | -86.41734 | 14317 ft | 353 kts | 70° |
| 2026-05-07 16:27 | 21.05656 | -86.38426 | 15149 ft | 356 kts | 70° |
| 2026-05-07 16:27 | 21.06522 | -86.35925 | 15745 ft | 359 kts | 70° |
| 2026-05-07 16:27 | 21.07393 | -86.33407 | 16340 ft | 363 kts | 70° |
| 2026-05-07 16:27 | 21.08274 | -86.30861 | 16918 ft | 366 kts | 69° |
| 2026-05-07 16:28 | 21.09162 | -86.28296 | 17506 ft | 369 kts | 69° |
| 2026-05-07 16:28 | 21.10044 | -86.25742 | 18087 ft | 372 kts | 69° |
| 2026-05-07 16:28 | 21.10946 | -86.23133 | 18610 ft | 376 kts | 69° |
| 2026-05-07 16:28 | 21.11857 | -86.20498 | 19104 ft | 379 kts | 69° |
| 2026-05-07 16:29 | 21.12774 | -86.17840 | 19605 ft | 382 kts | 69° |
| 2026-05-07 16:29 | 21.13699 | -86.15160 | 20089 ft | 386 kts | 70° |
| 2026-05-07 16:29 | 21.14633 | -86.12453 | 20570 ft | 389 kts | 70° |
| 2026-05-07 16:29 | 21.15574 | -86.09720 | 21064 ft | 393 kts | 70° |
| 2026-05-07 16:30 | 21.16525 | -86.06962 | 21543 ft | 396 kts | 70° |
| 2026-05-07 16:30 | 21.17482 | -86.04181 | 22008 ft | 400 kts | 70° |
| 2026-05-07 16:30 | 21.18449 | -86.01375 | 22471 ft | 404 kts | 70° |
| 2026-05-07 16:30 | 21.19364 | -85.98514 | 22891 ft | 408 kts | 75° |
| 2026-05-07 16:31 | 21.19996 | -85.95541 | 23364 ft | 411 kts | 79° |
| 2026-05-07 16:31 | 21.20559 | -85.92526 | 23773 ft | 414 kts | 79° |
| 2026-05-07 16:31 | 21.21136 | -85.89489 | 24146 ft | 418 kts | 79° |
| 2026-05-07 16:31 | 21.21721 | -85.86425 | 24543 ft | 421 kts | 79° |
| 2026-05-07 16:32 | 21.22309 | -85.83339 | 24898 ft | 425 kts | 79° |
| 2026-05-07 16:32 | 21.22900 | -85.80225 | 25267 ft | 428 kts | 79° |
| 2026-05-07 16:32 | 21.23494 | -85.77091 | 25641 ft | 431 kts | 79° |
| 2026-05-07 16:32 | 21.24093 | -85.73932 | 25996 ft | 434 kts | 79° |
| 2026-05-07 16:33 | 21.24686 | -85.70795 | 26331 ft | 437 kts | 79° |
| 2026-05-07 16:33 | 21.25291 | -85.67588 | 26688 ft | 440 kts | 79° |
| 2026-05-07 16:33 | 21.26120 | -85.64417 | 27020 ft | 444 kts | 68° |
| 2026-05-07 16:33 | 21.27551 | -85.61483 | 27343 ft | 447 kts | 56° |
| 2026-05-07 16:34 | 21.29546 | -85.58918 | 27651 ft | 450 kts | 43° |
| 2026-05-07 16:34 | 21.31865 | -85.56657 | 28002 ft | 452 kts | 42° |
| 2026-05-07 16:34 | 21.34206 | -85.54386 | 28327 ft | 455 kts | 42° |
| 2026-05-07 16:34 | 21.36557 | -85.52099 | 28645 ft | 458 kts | 42° |
| 2026-05-07 16:35 | 21.38923 | -85.49793 | 28951 ft | 461 kts | 42° |
| 2026-05-07 16:35 | 21.41299 | -85.47475 | 29282 ft | 463 kts | 42° |
| 2026-05-07 16:35 | 21.43689 | -85.45143 | 29583 ft | 466 kts | 42° |
| 2026-05-07 16:35 | 21.46091 | -85.42795 | 29897 ft | 468 kts | 41° |
| 2026-05-07 16:36 | 21.48505 | -85.40435 | 30180 ft | 471 kts | 41° |
| 2026-05-07 16:36 | 21.50935 | -85.38060 | 30463 ft | 473 kts | 41° |
| 2026-05-07 16:36 | 21.53375 | -85.35672 | 30763 ft | 475 kts | 41° |
| 2026-05-07 16:36 | 21.55825 | -85.33275 | 31011 ft | 478 kts | 41° |
| 2026-05-07 16:37 | 21.58288 | -85.30863 | 31350 ft | 479 kts | 41° |
| 2026-05-07 16:37 | 21.60746 | -85.28455 | 31756 ft | 478 kts | 41° |
| 2026-05-07 16:37 | 21.63199 | -85.26050 | 32184 ft | 476 kts | 41° |
| 2026-05-07 16:37 | 21.65644 | -85.23653 | 32580 ft | 475 kts | 41° |
| 2026-05-07 16:38 | 21.68048 | -85.21294 | 32967 ft | 474 kts | 41° |
| 2026-05-07 16:38 | 21.70514 | -85.18873 | 33358 ft | 473 kts | 41° |
| 2026-05-07 16:38 | 21.72910 | -85.16520 | 33723 ft | 472 kts | 41° |
| 2026-05-07 16:38 | 21.75335 | -85.14137 | 34067 ft | 472 kts | 40° |
| 2026-05-07 16:39 | 21.77755 | -85.11758 | 34378 ft | 471 kts | 40° |
| 2026-05-07 16:39 | 21.80170 | -85.09383 | 34685 ft | 470 kts | 40° |
| 2026-05-07 16:39 | 21.82580 | -85.07011 | 34970 ft | 469 kts | 40° |
| 2026-05-07 16:39 | 21.84985 | -85.04643 | 35252 ft | 469 kts | 40° |
| 2026-05-07 16:40 | 21.87388 | -85.02277 | 35525 ft | 468 kts | 40° |
| 2026-05-07 16:40 | 21.89790 | -84.99910 | 35816 ft | 467 kts | 40° |
| 2026-05-07 16:40 | 21.92186 | -84.97549 | 36081 ft | 467 kts | 40° |
| 2026-05-07 16:40 | 21.94578 | -84.95190 | 36347 ft | 466 kts | 40° |
| 2026-05-07 16:41 | 21.96968 | -84.92831 | 36605 ft | 465 kts | 40° |
| 2026-05-07 16:41 | 21.99353 | -84.90477 | 36855 ft | 465 kts | 40° |
| 2026-05-07 16:41 | 22.01731 | -84.88128 | 37101 ft | 464 kts | 40° |
| 2026-05-07 16:41 | 22.04113 | -84.85775 | 37330 ft | 464 kts | 40° |
| 2026-05-07 16:42 | 22.06488 | -84.83427 | 37566 ft | 463 kts | 40° |
| 2026-05-07 16:42 | 22.08860 | -84.81081 | 37797 ft | 462 kts | 40° |
| 2026-05-07 16:42 | 22.11226 | -84.78740 | 38013 ft | 462 kts | 40° |
| 2026-05-07 16:42 | 22.13595 | -84.76395 | 38219 ft | 462 kts | 40° |
| 2026-05-07 16:43 | 22.15957 | -84.74055 | 38421 ft | 461 kts | 40° |
| 2026-05-07 16:43 | 22.18319 | -84.71715 | 38617 ft | 461 kts | 40° |
| 2026-05-07 16:43 | 22.20678 | -84.69376 | 38786 ft | 460 kts | 40° |
| 2026-05-07 16:43 | 22.23034 | -84.67040 | 38948 ft | 460 kts | 40° |
| 2026-05-07 16:44 | 22.25385 | -84.64706 | 39033 ft | 459 kts | 40° |
| 2026-05-07 16:44 | 22.27324 | -84.62782 | 39042 ft | 459 kts | 40° |
| 2026-05-07 16:45 | 22.32017 | -84.58120 | 39041 ft | 458 kts | 40° |
| 2026-05-07 16:45 | 22.36706 | -84.53456 | 39042 ft | 458 kts | 40° |
| 2026-05-07 16:46 | 22.41394 | -84.48791 | 39043 ft | 458 kts | 40° |
| 2026-05-07 16:46 | 22.46083 | -84.44119 | 39040 ft | 458 kts | 40° |
| 2026-05-07 16:47 | 22.50767 | -84.39449 | 39039 ft | 458 kts | 40° |
| 2026-05-07 16:47 | 22.55451 | -84.34773 | 39046 ft | 458 kts | 40° |
| 2026-05-07 16:48 | 22.60106 | -84.30121 | 39049 ft | 459 kts | 40° |
| 2026-05-07 16:48 | 22.64763 | -84.25398 | 39047 ft | 460 kts | 43° |
| 2026-05-07 16:49 | 22.68958 | -84.20145 | 39050 ft | 462 kts | 47° |
| 2026-05-07 16:49 | 22.72387 | -84.15715 | 39049 ft | 462 kts | 47° |
| 2026-05-07 16:50 | 22.76532 | -84.10403 | 39051 ft | 461 kts | 46° |
| 2026-05-07 16:50 | 22.80718 | -84.05135 | 39050 ft | 461 kts | 46° |
| 2026-05-07 16:51 | 22.84897 | -83.99859 | 39050 ft | 461 kts | 46° |
| 2026-05-07 16:51 | 22.89071 | -83.94573 | 39053 ft | 461 kts | 46° |
| 2026-05-07 16:52 | 22.93238 | -83.89287 | 39053 ft | 461 kts | 46° |
| 2026-05-07 16:52 | 22.97401 | -83.84000 | 39055 ft | 461 kts | 46° |
| 2026-05-07 16:53 | 23.01564 | -83.78708 | 39052 ft | 460 kts | 46° |
| 2026-05-07 16:53 | 23.05718 | -83.73422 | 39047 ft | 460 kts | 46° |
| 2026-05-07 16:54 | 23.09871 | -83.68133 | 39059 ft | 460 kts | 46° |
| 2026-05-07 16:54 | 23.14021 | -83.62841 | 39056 ft | 460 kts | 46° |
| 2026-05-07 16:55 | 23.18141 | -83.57584 | 39061 ft | 460 kts | 46° |
| 2026-05-07 16:55 | 23.22288 | -83.52285 | 39055 ft | 460 kts | 46° |
| 2026-05-07 16:56 | 23.26436 | -83.46979 | 39060 ft | 460 kts | 46° |
| 2026-05-07 16:56 | 23.32655 | -83.39014 | 39064 ft | 461 kts | 46° |
| 2026-05-07 16:57 | 23.36798 | -83.33702 | 39068 ft | 461 kts | 46° |
| 2026-05-07 16:57 | 23.40941 | -83.28383 | 39065 ft | 461 kts | 46° |
| 2026-05-07 16:58 | 23.45085 | -83.23058 | 39062 ft | 461 kts | 46° |
| 2026-05-07 16:58 | 23.49225 | -83.17732 | 39074 ft | 460 kts | 46° |
| 2026-05-07 16:59 | 23.53360 | -83.12407 | 39066 ft | 460 kts | 46° |
| 2026-05-07 16:59 | 23.57493 | -83.07075 | 39066 ft | 460 kts | 46° |
| 2026-05-07 17:00 | 23.61611 | -83.01755 | 39057 ft | 460 kts | 46° |
| 2026-05-07 17:00 | 23.65744 | -82.96409 | 39064 ft | 460 kts | 46° |
| 2026-05-07 17:01 | 23.69840 | -82.91108 | 39073 ft | 460 kts | 46° |
| 2026-05-07 17:01 | 23.73957 | -82.85772 | 39058 ft | 460 kts | 46° |
| 2026-05-07 17:02 | 23.78075 | -82.80430 | 39060 ft | 460 kts | 46° |
| 2026-05-07 17:02 | 23.82188 | -82.75088 | 39062 ft | 460 kts | 46° |
| 2026-05-07 17:03 | 23.86303 | -82.69739 | 39075 ft | 460 kts | 46° |
| 2026-05-07 17:03 | 23.90416 | -82.64385 | 39064 ft | 460 kts | 46° |
| 2026-05-07 17:04 | 23.94527 | -82.59030 | 39064 ft | 460 kts | 46° |
| 2026-05-07 17:04 | 23.98638 | -82.53667 | 39066 ft | 460 kts | 46° |
| 2026-05-07 17:05 | 24.02926 | -82.48507 | 39064 ft | 458 kts | 42° |
| 2026-05-07 17:05 | 24.07310 | -82.43453 | 39063 ft | 458 kts | 42° |
| 2026-05-07 17:06 | 24.11689 | -82.38389 | 39067 ft | 458 kts | 42° |
| 2026-05-07 17:06 | 24.16071 | -82.33317 | 39065 ft | 458 kts | 42° |
| 2026-05-07 17:07 | 24.20452 | -82.28243 | 39071 ft | 459 kts | 43° |
| 2026-05-07 17:07 | 24.24804 | -82.23195 | 39071 ft | 459 kts | 43° |
| 2026-05-07 17:08 | 24.29184 | -82.18110 | 39072 ft | 459 kts | 43° |
| 2026-05-07 17:08 | 24.33568 | -82.13016 | 39071 ft | 459 kts | 43° |
| 2026-05-07 17:09 | 24.37949 | -82.07919 | 39075 ft | 459 kts | 43° |
| 2026-05-07 17:09 | 24.42332 | -82.02814 | 39082 ft | 460 kts | 43° |
| 2026-05-07 17:10 | 24.46712 | -81.97707 | 39089 ft | 460 kts | 42° |
| 2026-05-07 17:10 | 24.51520 | -81.93180 | 39087 ft | 454 kts | 33° |
| 2026-05-07 17:11 | 24.52791 | -81.92110 | 39079 ft | 453 kts | 33° |
| 2026-05-07 17:17 | 24.54250 | -81.90875 | 38976 ft | 453 kts | 33° |
| 2026-05-07 17:18 | 24.56743 | -81.88759 | 38441 ft | 455 kts | 33° |
| 2026-05-07 17:18 | 24.59255 | -81.86624 | 37576 ft | 460 kts | 33° |
| 2026-05-07 17:18 | 24.61804 | -81.84459 | 36584 ft | 467 kts | 33° |
| 2026-05-07 17:18 | 24.64360 | -81.82286 | 35589 ft | 474 kts | 33° |
| 2026-05-07 17:19 | 24.66975 | -81.80060 | 34681 ft | 476 kts | 33° |
| 2026-05-07 17:19 | 24.69592 | -81.77830 | 33530 ft | 477 kts | 33° |
| 2026-05-07 17:19 | 24.72217 | -81.75590 | 32277 ft | 478 kts | 34° |
| 2026-05-07 17:19 | 24.74843 | -81.73330 | 31018 ft | 481 kts | 34° |
| 2026-05-07 17:20 | 24.77459 | -81.71068 | 30239 ft | 472 kts | 35° |
| 2026-05-07 17:20 | 24.79991 | -81.68872 | 29782 ft | 455 kts | 34° |
| 2026-05-07 17:20 | 24.82449 | -81.66743 | 28978 ft | 447 kts | 34° |
| 2026-05-07 17:20 | 24.84876 | -81.64643 | 28120 ft | 440 kts | 34° |
| 2026-05-07 17:21 | 24.87267 | -81.62577 | 27297 ft | 434 kts | 34° |
| 2026-05-07 17:21 | 24.89618 | -81.60544 | 26698 ft | 423 kts | 34° |
| 2026-05-07 17:21 | 24.91897 | -81.58569 | 26201 ft | 410 kts | 34° |
| 2026-05-07 17:21 | 24.94107 | -81.56655 | 25707 ft | 399 kts | 34° |
| 2026-05-07 17:22 | 24.96266 | -81.54785 | 25218 ft | 389 kts | 34° |
| 2026-05-07 17:22 | 24.98364 | -81.52966 | 24718 ft | 380 kts | 34° |
| 2026-05-07 17:22 | 25.00436 | -81.51172 | 24329 ft | 382 kts | 34° |
| 2026-05-07 17:22 | 25.02543 | -81.49351 | 24197 ft | 385 kts | 34° |
| 2026-05-07 17:23 | 25.04649 | -81.47526 | 23778 ft | 386 kts | 34° |
| 2026-05-07 17:23 | 25.06771 | -81.45686 | 22847 ft | 391 kts | 35° |
| 2026-05-07 17:23 | 25.08912 | -81.43828 | 22113 ft | 389 kts | 35° |
| 2026-05-07 17:23 | 25.11016 | -81.41998 | 21742 ft | 383 kts | 35° |
| 2026-05-07 17:24 | 25.13110 | -81.40176 | 21328 ft | 382 kts | 35° |
| 2026-05-07 17:24 | 25.15184 | -81.38371 | 20849 ft | 377 kts | 35° |
| 2026-05-07 17:24 | 25.17215 | -81.36603 | 20378 ft | 367 kts | 35° |
| 2026-05-07 17:24 | 25.19190 | -81.34882 | 19915 ft | 357 kts | 35° |
| 2026-05-07 17:25 | 25.21111 | -81.33208 | 19468 ft | 347 kts | 35° |
| 2026-05-07 17:25 | 25.22978 | -81.31578 | 19019 ft | 339 kts | 36° |
| 2026-05-07 17:25 | 25.24853 | -81.29891 | 18582 ft | 360 kts | 37° |
| 2026-05-07 17:25 | 25.26799 | -81.28105 | 18346 ft | 364 kts | 37° |
| 2026-05-07 17:26 | 25.28745 | -81.26311 | 17819 ft | 365 kts | 37° |
| 2026-05-07 17:26 | 25.30692 | -81.24519 | 17169 ft | 363 kts | 37° |
| 2026-05-07 17:26 | 25.32585 | -81.22779 | 16653 ft | 353 kts | 38° |
| 2026-05-07 17:26 | 25.34446 | -81.21071 | 16206 ft | 342 kts | 38° |
| 2026-05-07 17:27 | 25.36243 | -81.19423 | 15772 ft | 331 kts | 38° |
| 2026-05-07 17:27 | 25.37990 | -81.17822 | 15345 ft | 321 kts | 38° |
| 2026-05-07 17:27 | 25.39711 | -81.16245 | 14935 ft | 333 kts | 38° |
| 2026-05-07 17:27 | 25.40324 | -81.15685 | 14786 ft | 343 kts | 38° |
| 2026-05-07 17:28 | 25.42308 | -81.13872 | 14507 ft | 354 kts | 38° |
| 2026-05-07 17:28 | 25.44188 | -81.12146 | 14329 ft | 347 kts | 38° |
| 2026-05-07 17:28 | 25.46034 | -81.10451 | 13793 ft | 343 kts | 38° |
| 2026-05-07 17:28 | 25.47869 | -81.08766 | 13044 ft | 341 kts | 39° |
| 2026-05-07 17:29 | 25.49683 | -81.07097 | 12477 ft | 334 kts | 39° |
| 2026-05-07 17:29 | 25.51440 | -81.05482 | 12064 ft | 323 kts | 39° |
| 2026-05-07 17:29 | 25.53141 | -81.03917 | 11647 ft | 314 kts | 39° |
| 2026-05-07 17:29 | 25.54814 | -81.02377 | 11212 ft | 313 kts | 39° |
| 2026-05-07 17:30 | 25.56498 | -81.00827 | 10707 ft | 314 kts | 39° |
| 2026-05-07 17:30 | 25.58174 | -80.99285 | 10310 ft | 312 kts | 39° |
| 2026-05-07 17:30 | 25.59813 | -80.97775 | 10156 ft | 300 kts | 39° |
| 2026-05-07 17:30 | 25.61468 | -80.96414 | 9863 ft | 294 kts | 28° |
| 2026-05-07 17:31 | 25.63342 | -80.95649 | 9715 ft | 283 kts | 11° |
| 2026-05-07 17:31 | 25.65322 | -80.95427 | 9547 ft | 291 kts | 4° |
| 2026-05-07 17:31 | 25.67373 | -80.95264 | 9211 ft | 299 kts | 4° |
| 2026-05-07 17:31 | 25.69426 | -80.95093 | 9018 ft | 293 kts | 5° |
| 2026-05-07 17:32 | 25.71447 | -80.94923 | 8663 ft | 290 kts | 5° |
| 2026-05-07 17:32 | 25.73461 | -80.94754 | 8246 ft | 290 kts | 5° |
| 2026-05-07 17:32 | 25.75471 | -80.94586 | 7844 ft | 289 kts | 5° |
| 2026-05-07 17:32 | 25.76798 | -80.94475 | 7582 ft | 289 kts | 5° |
| 2026-05-07 17:33 | 25.79441 | -80.94253 | 7121 ft | 285 kts | 5° |
| 2026-05-07 17:33 | 25.81411 | -80.94088 | 6994 ft | 277 kts | 5° |
| 2026-05-07 17:33 | 25.83333 | -80.93926 | 6965 ft | 283 kts | 5° |
| 2026-05-07 17:33 | 25.85290 | -80.93762 | 6967 ft | 281 kts | 5° |
| 2026-05-07 17:34 | 25.87229 | -80.93452 | 6967 ft | 282 kts | 15° |
| 2026-05-07 17:34 | 25.89055 | -80.92681 | 6968 ft | 281 kts | 28° |
| 2026-05-07 17:34 | 25.90759 | -80.91619 | 6966 ft | 281 kts | 30° |
| 2026-05-07 17:34 | 25.92467 | -80.90563 | 6965 ft | 281 kts | 29° |
| 2026-05-07 17:35 | 25.94179 | -80.89511 | 6967 ft | 282 kts | 29° |
| 2026-05-07 17:35 | 25.95893 | -80.88462 | 6964 ft | 281 kts | 29° |
| 2026-05-07 17:35 | 25.97603 | -80.87414 | 6964 ft | 281 kts | 29° |
| 2026-05-07 17:35 | 25.99315 | -80.86365 | 6965 ft | 281 kts | 30° |
| 2026-05-07 17:36 | 26.00811 | -80.84998 | 6966 ft | 280 kts | 53° |
| 2026-05-07 17:36 | 26.01627 | -80.83038 | 6880 ft | 283 kts | 77° |
| 2026-05-07 17:36 | 26.01987 | -80.80891 | 6725 ft | 280 kts | 80° |
| 2026-05-07 17:36 | 26.02305 | -80.78757 | 6579 ft | 279 kts | 81° |
| 2026-05-07 17:37 | 26.02621 | -80.76628 | 6435 ft | 279 kts | 81° |
| 2026-05-07 17:37 | 26.02945 | -80.74500 | 6277 ft | 279 kts | 80° |
| 2026-05-07 17:37 | 26.03276 | -80.72380 | 6144 ft | 278 kts | 80° |
| 2026-05-07 17:37 | 26.03611 | -80.70264 | 5998 ft | 278 kts | 80° |
| 2026-05-07 17:38 | 26.03947 | -80.68151 | 5857 ft | 278 kts | 80° |
| 2026-05-07 17:38 | 26.04279 | -80.66063 | 5719 ft | 278 kts | 80° |
| 2026-05-07 17:38 | 26.04615 | -80.63950 | 5570 ft | 277 kts | 80° |
| 2026-05-07 17:38 | 26.04949 | -80.61841 | 5434 ft | 277 kts | 80° |
| 2026-05-07 17:39 | 26.05283 | -80.59735 | 5290 ft | 277 kts | 80° |
| 2026-05-07 17:39 | 26.05616 | -80.57628 | 5146 ft | 277 kts | 80° |
| 2026-05-07 17:39 | 26.05949 | -80.55523 | 5004 ft | 276 kts | 80° |
| 2026-05-07 17:39 | 26.06277 | -80.53438 | 4960 ft | 269 kts | 80° |
| 2026-05-07 17:40 | 26.06582 | -80.51449 | 4960 ft | 253 kts | 82° |
| 2026-05-07 17:40 | 26.06749 | -80.49490 | 4958 ft | 266 kts | 88° |
| 2026-05-07 17:40 | 26.06777 | -80.47409 | 4888 ft | 269 kts | 91° |
| 2026-05-07 17:40 | 26.06763 | -80.46052 | 4831 ft | 265 kts | 91° |
| 2026-05-07 17:41 | 26.06753 | -80.44002 | 4570 ft | 264 kts | 91° |
| 2026-05-07 17:41 | 26.06741 | -80.41953 | 4280 ft | 262 kts | 91° |
| 2026-05-07 17:41 | 26.06730 | -80.39966 | 4177 ft | 253 kts | 91° |
| 2026-05-07 17:41 | 26.06717 | -80.38025 | 3983 ft | 249 kts | 91° |
| 2026-05-07 17:42 | 26.06706 | -80.36104 | 3717 ft | 248 kts | 91° |
| 2026-05-07 17:42 | 26.06695 | -80.34186 | 3420 ft | 249 kts | 91° |
| 2026-05-07 17:42 | 26.06685 | -80.32273 | 3089 ft | 245 kts | 91° |
| 2026-05-07 17:42 | 26.06674 | -80.30409 | 2776 ft | 237 kts | 91° |
| 2026-05-07 17:43 | 26.06664 | -80.28606 | 2458 ft | 230 kts | 91° |
| 2026-05-07 17:43 | 26.06653 | -80.26879 | 2195 ft | 214 kts | 91° |
| 2026-05-07 17:43 | 26.06646 | -80.25338 | 1953 ft | 186 kts | 91° |
| 2026-05-07 17:43 | 26.06636 | -80.23982 | 1736 ft | 165 kts | 91° |
| 2026-05-07 17:44 | 26.06629 | -80.22771 | 1531 ft | 149 kts | 91° |
| 2026-05-07 17:44 | 26.06622 | -80.21654 | 1328 ft | 140 kts | 91° |
| 2026-05-07 17:44 | 26.06616 | -80.20562 | 933 ft | 144 kts | 91° |
| 2026-05-07 17:44 | 26.06612 | -80.19478 | 709 ft | 134 kts | 91° |
| 2026-05-07 17:45 | 26.06621 | -80.18478 | 489 ft | 125 kts | 90° |
| 2026-05-07 17:45 | 26.06608 | -80.17490 | 356 ft | 130 kts | 92° |
| 2026-05-07 17:45 | 26.06599 | -80.16508 | 169 ft | 125 kts | 91° |
| 2026-05-07 17:45 | 26.06588 | -80.15545 | 42 ft | 122 kts | 91° |
| 2026-05-07 17:46 | 26.06581 | -80.14730 | 42 ft | 80 kts | 90° |
| 2026-05-07 17:46 | 26.06584 | -80.14323 | 49 ft | 37 kts | 82° |
| 2026-05-07 17:46 | 26.06683 | -80.14244 | 51 ft | 14 kts | 320° |
| 2026-05-07 17:46 | 26.06688 | -80.14299 | 50 ft | 7 kts | 269° |
| 2026-05-07 17:47 | 26.06688 | -80.14364 | 48 ft | 9 kts | 271° |
| 2026-05-07 17:47 | 26.06690 | -80.14442 | 46 ft | 11 kts | 272° |
| 2026-05-07 17:47 | 26.06692 | -80.14535 | 43 ft | 13 kts | 267° |
| 2026-05-07 17:47 | 26.06688 | -80.14635 | 41 ft | 13 kts | 268° |
| 2026-05-07 17:48 | 26.06690 | -80.14735 | 41 ft | 13 kts | 272° |
| 2026-05-07 17:48 | 26.06694 | -80.14833 | 40 ft | 12 kts | 274° |
| 2026-05-07 17:48 | 26.06713 | -80.14917 | 39 ft | 11 kts | 328° |
| 2026-05-07 17:48 | 26.06765 | -80.14891 | 39 ft | 8 kts | 80° |
| 2026-05-07 17:49 | 26.06767 | -80.14841 | 39 ft | 5 kts | 89° |
| 2026-05-07 17:49 | 26.06768 | -80.14827 | 39 ft | 0 kts | 91° |
| 2026-05-07 17:49 | 26.06767 | -80.14816 | 39 ft | 5 kts | 93° |
| 2026-05-07 17:49 | 26.06767 | -80.14728 | 39 ft | 18 kts | 90° |
| 2026-05-07 17:50 | 26.06765 | -80.14572 | 39 ft | 17 kts | 92° |
| 2026-05-07 17:50 | 26.06813 | -80.14513 | 39 ft | 14 kts | 353° |
| 2026-05-07 17:50 | 26.06889 | -80.14516 | 36 ft | 9 kts | 1° |
| 2026-05-07 17:50 | 26.06891 | -80.14516 | 36 ft | 0 kts | 1° |
| 2026-05-07 18:10 | 26.06892 | -80.14516 | 36 ft | 2 kts | 1° |
| 2026-05-07 18:11 | 26.06909 | -80.14515 | 36 ft | 0 kts | 1° |
| 2026-05-07 18:14 | 26.06911 | -80.14515 | 36 ft | 0 kts | 359° |
| 2026-05-07 18:14 | 21.03659 | -86.87069 | 19 ft | 0 kts | 0° |